Storm Events Database

Event Details

Event Hail
Magnitude 1.25 in.
State OKLAHOMA
County/Area WASHITA
WFO OUN
Begin Date 06/16/2008 16:40:00 CST-6
Begin Range 1
Begin Azimuth S
Begin Location DILL CITY
Begin Lat/Lon 35.27/-99.13
End Date 06/16/2008 16:40:00 CST-6
Deaths Direct/Indirect 0/0 (fatality details below, when available...)
Injuries Direct/Indirect 0/0
Property Damage 0.00K
Crop Damage 0.00K
Episode Narrative Widespread showers and thunderstorms developed along several boundaries that were located over Oklahoma. The thunderstorms moved slowly southeast during the afternoon, and continued developing and moving southeast into the overnight hours. Hail to baseball size was reported in Greer county, with several locations reporting hail over golfball size. Winds over 65 mph were also reported in southwest Oklahoma, with mostly tree damage reported. Monetary damages were estimated.
Event Narrative


All events for this episode:

Location County/Zone St. Date Time T.Z. Type Mag Dth Inj PrD CrD
Totals: 0 0 1.614M 0.00K
CUSTER CITY CUSTER CO. OK 06/16/2008 14:40 CST-6 Hail 1.75 in. 0 0 0.00K 0.00K
CUSTER CITY CUSTER CO. OK 06/16/2008 14:47 CST-6 Hail 1.75 in. 0 0 0.00K 0.00K
CORN WASHITA CO. OK 06/16/2008 15:30 CST-6 Hail 1.75 in. 0 0 0.00K 0.00K
ELK CITY BECKHAM CO. OK 06/16/2008 15:41 CST-6 Thunderstorm Wind 61 kts. EG 0 0 15.00K 0.00K
CANUTE WASHITA CO. OK 06/16/2008 15:47 CST-6 Hail 1.75 in. 0 0 0.00K 0.00K
ALFALFA CADDO CO. OK 06/16/2008 16:30 CST-6 Hail 1.00 in. 0 0 0.00K 0.00K
DILL CITY WASHITA CO. OK 06/16/2008 16:40 CST-6 Hail 1.25 in. 0 0 0.00K 0.00K
WILLOW GREER CO. OK 06/16/2008 16:42 CST-6 Hail 2.00 in. 0 0 0.00K 0.00K
BRINKMAN GREER CO. OK 06/16/2008 16:44 CST-6 Hail 1.00 in. 0 0 0.00K 0.00K
WILLOW GREER CO. OK 06/16/2008 16:45 CST-6 Hail 1.25 in. 0 0 0.00K 0.00K
WILLOW GREER CO. OK 06/16/2008 16:51 CST-6 Hail 2.75 in. 0 0 0.00K 0.00K
HOBART KIOWA CO. OK 06/16/2008 17:00 CST-6 Thunderstorm Wind 61 kts. EG 0 0 20.00K 0.00K
HOBART KIOWA CO. OK 06/16/2008 17:00 CST-6 Hail 0.75 in. 0 0 0.00K 0.00K
WILLOW GREER CO. OK 06/16/2008 17:38 CST-6 Hail 1.75 in. 0 0 0.00K 0.00K
ROOSEVELT KIOWA CO. OK 06/16/2008 17:40 CST-6 Hail 1.00 in. 0 0 0.00K 0.00K
HENNESSEY KINGFISHER CO. OK 06/16/2008 17:45 CST-6 Hail 0.75 in. 0 0 0.00K 0.00K
ALTUS JACKSON CO. OK 06/16/2008 17:55 CST-6 Thunderstorm Wind 52 kts. EG 0 0 12.00K 0.00K
HEADRICK JACKSON CO. OK 06/16/2008 18:05 CST-6 Hail 1.75 in. 0 0 0.00K 0.00K
OLUSTEE JACKSON CO. OK 06/16/2008 18:13 CST-6 Hail 1.75 in. 0 0 0.00K 0.00K
OLUSTEE JACKSON CO. OK 06/16/2008 18:15 CST-6 Thunderstorm Wind 61 kts. EG 0 0 40.00K 0.00K
HEADRICK JACKSON CO. OK 06/16/2008 18:18 CST-6 Hail 1.75 in. 0 0 0.00K 0.00K
OLUSTEE JACKSON CO. OK 06/16/2008 18:24 CST-6 Hail 1.00 in. 0 0 0.00K 0.00K
OLUSTEE JACKSON CO. OK 06/16/2008 18:28 CST-6 Hail 1.25 in. 0 0 0.00K 0.00K
OLUSTEE JACKSON CO. OK 06/16/2008 18:28 CST-6 Thunderstorm Wind 52 kts. EG 0 0 3.00K 0.00K
ALTUS JACKSON CO. OK 06/16/2008 18:31 CST-6 Hail 0.88 in. 0 0 0.00K 0.00K
LUTHER OKLAHOMA CO. OK 06/16/2008 18:53 CST-6 Hail 1.50 in. 0 0 0.00K 0.00K
LUTHER OKLAHOMA CO. OK 06/16/2008 19:00 CST-6 Hail 2.00 in. 0 0 0.00K 0.00K
HARRAH OKLAHOMA CO. OK 06/16/2008 19:36 CST-6 Hail 1.75 in. 0 0 0.00K 0.00K
JONES OKLAHOMA CO. OK 06/16/2008 19:38 CST-6 Hail 0.88 in. 0 0 0.00K 0.00K
JACKTOWN LINCOLN CO. OK 06/16/2008 19:44 CST-6 Hail 1.75 in. 0 0 0.00K 0.00K
MCLOUD POTTAWATOMIE CO. OK 06/16/2008 20:18 CST-6 Hail 1.25 in. 0 0 0.00K 0.00K
PINK POTTAWATOMIE CO. OK 06/16/2008 20:26 CST-6 Hail 1.50 in. 0 0 0.00K 0.00K
LAKE THUNDERBIRD DAM CLEVELAND CO. OK 06/16/2008 20:45 CST-6 Thunderstorm Wind 52 kts. EG 0 0 0.00K 0.00K
FOREST PARK OKLAHOMA CO. OK 06/16/2008 21:06 CST-6 Hail 0.75 in. 0 0 0.00K 0.00K
NOBLE CLEVELAND CO. OK 06/16/2008 22:03 CST-6 Hail 1.00 in. 0 0 0.00K 0.00K
EDMOND OKLAHOMA CO. OK 06/17/2008 03:25 CST-6 Hail 1.00 in. 0 0 0.00K 0.00K
CHOCTAW OKLAHOMA CO. OK 06/17/2008 04:19 CST-6 Hail 1.25 in. 0 0 0.00K 0.00K
NEWCASTLE MCCLAIN CO. OK 06/17/2008 06:45 CST-6 Thunderstorm Wind 56 kts. EG 0 0 2.00K 0.00K
GOLDSBY MCCLAIN CO. OK 06/17/2008 06:50 CST-6 Thunderstorm Wind 52 kts. EG 0 0 20.00K 0.00K
EDMOND OKLAHOMA CO. OK 06/17/2008 07:15 CST-6 Flood 0 0 0.00K 0.00K
OKLAHOMA CITY OKLAHOMA CO. OK 06/17/2008 07:30 CST-6 Lightning 0 0 1.500M 0.00K
NORMAN CLEVELAND CO. OK 06/17/2008 08:00 CST-6 Thunderstorm Wind 52 kts. EG 0 0 2.50K 0.00K
Totals: 0 0 1.614M 0.00K